createdAt,value
2018-04-26T00:00:34.225Z,0.00
2018-04-26T00:01:34.216Z,0.00
2018-04-26T00:02:34.194Z,0.00
2018-04-26T00:03:34.202Z,0.00
2018-04-26T00:04:34.185Z,0.00
2018-04-26T00:05:34.171Z,0.00
2018-04-26T00:06:34.164Z,0.00
2018-04-26T00:07:34.154Z,0.00
2018-04-26T00:08:34.153Z,0.00
2018-04-26T00:09:34.139Z,0.00
2018-04-26T00:10:34.143Z,0.00
2018-04-26T00:11:34.116Z,0.00
2018-04-26T00:12:34.157Z,0.00
2018-04-26T00:13:34.129Z,0.00
2018-04-26T00:14:34.104Z,0.00
2018-04-26T00:15:34.116Z,0.00
2018-04-26T00:16:34.094Z,0.00
2018-04-26T00:17:34.077Z,0.00
2018-04-26T00:18:34.047Z,0.00
2018-04-26T00:19:34.041Z,0.00
2018-04-26T00:20:34.063Z,0.00
2018-04-26T00:21:34.033Z,0.00
2018-04-26T00:22:34.024Z,0.00
2018-04-26T00:23:34.003Z,0.00
2018-04-26T00:24:34.008Z,0.00
2018-04-26T00:25:33.989Z,0.00
2018-04-26T00:26:33.978Z,0.00
2018-04-26T00:27:33.980Z,0.00
2018-04-26T00:28:33.959Z,0.00
2018-04-26T00:29:33.966Z,0.00
2018-04-26T00:30:33.948Z,0.00
2018-04-26T00:31:33.937Z,0.00
2018-04-26T00:32:33.965Z,0.00
2018-04-26T00:33:33.926Z,0.00
2018-04-26T00:34:33.920Z,0.00
2018-04-26T00:35:33.927Z,0.00
2018-04-26T00:36:33.896Z,0.00
2018-04-26T00:37:33.883Z,0.00
2018-04-26T00:38:33.883Z,0.00
2018-04-26T00:39:33.880Z,0.00
2018-04-26T00:40:33.873Z,0.00
2018-04-26T00:41:33.852Z,0.00
2018-04-26T00:42:33.842Z,0.00
2018-04-26T00:43:33.848Z,0.00
2018-04-26T00:44:33.827Z,0.00
2018-04-26T00:45:33.819Z,0.00
2018-04-26T00:46:33.810Z,0.00
2018-04-26T00:47:33.803Z,0.00
2018-04-26T00:48:33.804Z,0.00
2018-04-26T00:49:33.797Z,0.00
2018-04-26T00:50:33.790Z,0.00
2018-04-26T00:51:33.767Z,0.00
2018-04-26T00:52:33.784Z,0.00
2018-04-26T00:53:33.763Z,0.00
2018-04-26T00:54:33.758Z,0.00
2018-04-26T00:55:33.767Z,0.00
2018-04-26T00:56:33.723Z,0.00
2018-04-26T00:57:33.734Z,0.00
2018-04-26T00:58:33.720Z,0.00
2018-04-26T00:59:33.714Z,0.00
2018-04-26T01:00:33.696Z,0.00
2018-04-26T01:01:33.682Z,0.00
2018-04-26T01:02:33.687Z,0.00
2018-04-26T01:03:33.681Z,0.00
2018-04-26T01:04:33.665Z,0.00
2018-04-26T01:05:33.657Z,0.00
2018-04-26T01:06:34.500Z,0.00
2018-04-26T01:07:33.674Z,0.00
2018-04-26T01:08:33.629Z,0.00
2018-04-26T01:09:33.619Z,0.00
2018-04-26T01:10:33.668Z,0.00
2018-04-26T01:11:33.611Z,0.00
2018-04-26T01:12:33.604Z,0.00
2018-04-26T01:13:33.585Z,0.00
2018-04-26T01:14:33.579Z,0.00
2018-04-26T01:15:33.568Z,0.00
2018-04-26T01:16:33.570Z,0.00
2018-04-26T01:17:33.551Z,0.00
2018-04-26T01:18:33.554Z,0.00
2018-04-26T01:19:33.546Z,0.00
2018-04-26T01:20:33.524Z,0.00
2018-04-26T01:21:33.519Z,0.00
2018-04-26T01:22:33.521Z,0.00
2018-04-26T01:23:33.503Z,0.00
2018-04-26T01:24:33.495Z,0.00
2018-04-26T01:25:33.489Z,0.00
2018-04-26T01:26:33.483Z,0.00
2018-04-26T01:27:33.470Z,0.00
2018-04-26T01:28:33.460Z,0.00
2018-04-26T01:29:33.455Z,0.00
2018-04-26T01:30:33.445Z,0.00
2018-04-26T01:31:33.448Z,0.00
2018-04-26T01:32:33.432Z,0.00
2018-04-26T01:33:33.420Z,0.00
2018-04-26T01:34:33.410Z,0.00
2018-04-26T01:35:33.419Z,0.00
2018-04-26T01:36:33.394Z,0.00
2018-04-26T01:37:33.388Z,0.00
2018-04-26T01:38:33.379Z,0.00
2018-04-26T01:39:33.382Z,0.00
2018-04-26T01:40:33.376Z,0.00
2018-04-26T01:41:33.358Z,0.00
2018-04-26T01:42:33.347Z,0.00
2018-04-26T01:43:33.338Z,0.00
2018-04-26T01:44:33.334Z,0.00
2018-04-26T01:45:33.379Z,0.00
2018-04-26T01:46:33.320Z,0.00
2018-04-26T01:47:33.306Z,0.00
2018-04-26T01:48:33.297Z,0.00
2018-04-26T01:49:33.301Z,0.00
2018-04-26T01:50:33.282Z,0.00
2018-04-26T01:51:33.285Z,0.00
2018-04-26T01:52:33.271Z,0.00
2018-04-26T01:53:33.260Z,0.00
2018-04-26T01:54:33.249Z,0.00
2018-04-26T01:55:33.239Z,0.00
2018-04-26T01:56:33.232Z,0.00
2018-04-26T01:57:33.224Z,0.00
2018-04-26T01:58:33.234Z,0.00
2018-04-26T01:59:33.212Z,0.00
2018-04-26T02:00:33.221Z,0.00
2018-04-26T02:01:33.195Z,0.00
2018-04-26T02:02:33.186Z,0.00
2018-04-26T02:03:33.178Z,0.00
2018-04-26T02:04:33.173Z,0.00
2018-04-26T02:05:33.182Z,0.00
2018-04-26T02:06:33.153Z,0.00
2018-04-26T02:07:33.149Z,0.00
2018-04-26T02:08:33.148Z,0.00
2018-04-26T02:09:33.143Z,0.00
2018-04-26T02:10:33.121Z,0.00
2018-04-26T02:11:33.135Z,0.00
2018-04-26T02:12:33.107Z,0.00
2018-04-26T02:13:33.109Z,0.00
2018-04-26T02:14:33.104Z,0.00
2018-04-26T02:15:33.083Z,0.00
2018-04-26T02:16:33.083Z,0.00
2018-04-26T02:17:33.066Z,0.00
2018-04-26T02:18:33.069Z,0.00
2018-04-26T02:19:33.048Z,0.00
2018-04-26T02:20:33.100Z,0.00
2018-04-26T02:21:33.061Z,0.00
2018-04-26T02:22:33.020Z,0.00
2018-04-26T02:23:33.025Z,0.00
2018-04-26T02:24:33.006Z,0.00
2018-04-26T02:25:32.994Z,0.00
2018-04-26T02:26:33.003Z,0.00
2018-04-26T02:27:32.988Z,0.00
2018-04-26T02:28:32.988Z,0.00
2018-04-26T02:29:32.974Z,0.00
2018-04-26T02:30:32.972Z,0.00
2018-04-26T02:31:32.949Z,0.00
2018-04-26T02:32:32.971Z,0.00
2018-04-26T02:33:32.926Z,0.00
2018-04-26T02:34:32.935Z,0.00
2018-04-26T02:35:32.923Z,0.00
2018-04-26T02:36:32.904Z,0.00
2018-04-26T02:37:32.905Z,0.00
2018-04-26T02:38:32.883Z,0.00
2018-04-26T02:39:32.889Z,0.00
2018-04-26T02:40:32.880Z,0.00
2018-04-26T02:41:32.876Z,0.00
2018-04-26T02:42:32.856Z,0.00
2018-04-26T02:43:32.842Z,0.00
2018-04-26T02:44:32.846Z,0.00
2018-04-26T02:45:32.828Z,0.00
2018-04-26T02:46:32.822Z,0.00
2018-04-26T02:47:32.815Z,0.00
2018-04-26T02:48:32.800Z,0.00
2018-04-26T02:49:32.795Z,0.00
2018-04-26T02:50:32.785Z,0.00
2018-04-26T02:51:32.779Z,0.00
2018-04-26T02:52:32.769Z,0.00
2018-04-26T02:53:32.772Z,0.00
2018-04-26T02:54:32.756Z,0.00
2018-04-26T02:55:32.747Z,0.00
2018-04-26T02:56:32.736Z,0.00
2018-04-26T02:57:32.744Z,0.00
2018-04-26T02:58:32.724Z,0.00
2018-04-26T02:59:32.719Z,0.00
2018-04-26T03:00:32.714Z,0.00
2018-04-26T03:01:32.691Z,0.00
2018-04-26T03:02:32.699Z,0.00
2018-04-26T03:03:32.677Z,0.00
2018-04-26T03:04:32.667Z,0.00
2018-04-26T03:05:32.679Z,0.00
2018-04-26T03:06:32.661Z,0.00
2018-04-26T03:07:32.653Z,0.00
2018-04-26T03:08:32.637Z,0.00
2018-04-26T03:09:32.624Z,0.00
2018-04-26T03:10:32.613Z,0.00
2018-04-26T03:11:32.619Z,0.00
2018-04-26T03:12:32.598Z,0.00
2018-04-26T03:13:32.601Z,0.00
2018-04-26T03:14:32.597Z,0.00
2018-04-26T03:15:32.576Z,0.00
2018-04-26T03:16:32.577Z,0.00
2018-04-26T03:17:32.577Z,0.00
2018-04-26T03:18:32.559Z,0.00
2018-04-26T03:19:32.551Z,0.00
2018-04-26T03:20:32.543Z,0.00
2018-04-26T03:21:32.521Z,0.00
2018-04-26T03:22:32.512Z,0.00
2018-04-26T03:23:32.507Z,0.00
2018-04-26T03:24:32.498Z,0.00
2018-04-26T03:25:32.544Z,0.00
2018-04-26T03:26:32.494Z,0.00
2018-04-26T03:27:32.487Z,0.00
2018-04-26T03:28:32.488Z,0.00
2018-04-26T03:29:32.453Z,0.00
2018-04-26T03:30:32.446Z,0.00
2018-04-26T03:31:32.440Z,0.00
2018-04-26T03:32:32.427Z,0.00
2018-04-26T03:33:32.428Z,0.00
2018-04-26T03:34:32.417Z,0.00
2018-04-26T03:35:32.435Z,0.00
2018-04-26T03:36:32.407Z,4.00
2018-04-26T03:37:32.386Z,4.00
2018-04-26T03:38:32.386Z,4.00
2018-04-26T03:39:32.369Z,0.00
2018-04-26T03:40:32.372Z,4.00
2018-04-26T03:41:32.371Z,0.00
2018-04-26T03:42:32.344Z,0.00
2018-04-26T03:43:32.333Z,4.00
2018-04-26T03:44:32.337Z,4.00
2018-04-26T03:45:32.320Z,4.00
2018-04-26T03:46:32.311Z,8.00
2018-04-26T03:47:32.301Z,12.00
2018-04-26T03:48:32.293Z,8.00
2018-04-26T03:49:32.284Z,12.00
2018-04-26T03:50:32.276Z,16.00
2018-04-26T03:51:32.266Z,20.00
2018-04-26T03:52:32.258Z,24.00
2018-04-26T03:53:32.261Z,28.00
2018-04-26T03:54:32.246Z,32.00
2018-04-26T03:55:32.233Z,36.00
2018-04-26T03:56:32.239Z,40.00
2018-04-26T03:57:32.218Z,48.00
2018-04-26T03:58:32.221Z,52.00
2018-04-26T03:59:32.200Z,60.00
2018-04-26T04:00:32.189Z,68.00
2018-04-26T04:01:32.246Z,72.00
2018-04-26T04:02:32.175Z,80.00
2018-04-26T04:03:32.174Z,88.00
2018-04-26T04:04:32.156Z,100.00
2018-04-26T04:05:32.152Z,108.00
2018-04-26T04:06:32.144Z,112.00
2018-04-26T04:07:32.128Z,116.00
2018-04-26T04:08:32.121Z,124.00
2018-04-26T04:09:32.114Z,124.00
2018-04-26T04:10:32.106Z,96.00
2018-04-26T04:11:32.095Z,64.00
2018-04-26T04:12:32.087Z,56.00
2018-04-26T04:13:32.076Z,52.00
2018-04-26T04:14:32.072Z,48.00
2018-04-26T04:15:32.061Z,48.00
2018-04-26T04:16:32.052Z,28.00
2018-04-26T04:17:32.053Z,20.00
2018-04-26T04:18:32.036Z,32.00
2018-04-26T04:19:32.029Z,28.00
2018-04-26T04:20:32.028Z,28.00
2018-04-26T04:21:32.011Z,40.00
2018-04-26T04:22:31.999Z,48.00
2018-04-26T04:23:31.992Z,96.00
2018-04-26T04:24:31.996Z,140.00
2018-04-26T04:25:31.985Z,136.00
2018-04-26T04:26:31.977Z,144.00
2018-04-26T04:27:31.960Z,180.00
2018-04-26T04:28:31.950Z,192.00
2018-04-26T04:29:31.941Z,188.00
2018-04-26T04:30:31.929Z,136.00
2018-04-26T04:31:31.919Z,108.00
2018-04-26T04:32:31.915Z,112.00
2018-04-26T04:33:31.903Z,112.00
2018-04-26T04:34:31.896Z,120.00
2018-04-26T04:35:31.900Z,124.00
2018-04-26T04:36:31.888Z,120.00
2018-04-26T04:37:31.875Z,132.00
2018-04-26T04:38:31.862Z,160.00
2018-04-26T04:39:31.864Z,196.00
2018-04-26T04:40:31.856Z,288.00
2018-04-26T04:41:31.835Z,360.00
2018-04-26T04:42:31.842Z,388.00
2018-04-26T04:43:31.823Z,412.00
2018-04-26T04:44:31.808Z,356.00
2018-04-26T04:45:31.801Z,304.00
2018-04-26T04:46:31.800Z,284.00
2018-04-26T04:47:31.786Z,316.00
2018-04-26T04:48:31.774Z,396.00
2018-04-26T04:49:31.766Z,528.00
2018-04-26T04:50:31.758Z,600.00
2018-04-26T04:51:31.752Z,680.00
2018-04-26T04:52:31.750Z,700.00
2018-04-26T04:53:31.740Z,712.00
2018-04-26T04:54:31.721Z,656.00
2018-04-26T04:55:31.713Z,612.00
2018-04-26T04:56:31.704Z,676.00
2018-04-26T04:57:31.708Z,700.00
2018-04-26T04:58:31.700Z,700.00
2018-04-26T04:59:31.679Z,792.00
2018-04-26T05:00:31.685Z,944.00
2018-04-26T05:01:31.661Z,1148.00
2018-04-26T05:02:31.660Z,1272.00
2018-04-26T05:03:31.647Z,1228.00
2018-04-26T05:04:31.643Z,1176.00
2018-04-26T05:05:31.624Z,1248.00
2018-04-26T05:06:31.626Z,1800.00
2018-04-26T05:07:31.603Z,2200.00
2018-04-26T05:08:31.599Z,2260.00
2018-04-26T05:09:31.616Z,2212.00
2018-04-26T05:10:31.579Z,2128.00
2018-04-26T05:11:31.578Z,2044.00
2018-04-26T05:12:31.561Z,1976.00
2018-04-26T05:13:31.568Z,1964.00
2018-04-26T05:14:31.561Z,1964.00
2018-04-26T05:15:31.537Z,2060.00
2018-04-26T05:16:31.539Z,2328.00
2018-04-26T05:17:31.536Z,2348.00
2018-04-26T05:18:31.522Z,2144.00
2018-04-26T05:19:31.503Z,1884.00
2018-04-26T05:20:31.492Z,1788.00
2018-04-26T05:21:31.493Z,1844.00
2018-04-26T05:22:31.492Z,2136.00
2018-04-26T05:23:31.471Z,2076.00
2018-04-26T05:24:31.470Z,1920.00
2018-04-26T05:25:31.470Z,1880.00
2018-04-26T05:26:31.454Z,1948.00
2018-04-26T05:27:31.436Z,2196.00
2018-04-26T05:28:31.436Z,2560.00
2018-04-26T05:29:31.420Z,2968.00
2018-04-26T05:30:31.416Z,3420.00
2018-04-26T05:31:31.393Z,3660.00
2018-04-26T05:32:31.386Z,3532.00
2018-04-26T05:33:31.379Z,3012.00
2018-04-26T05:34:31.370Z,2840.00
2018-04-26T05:35:31.359Z,3060.00
2018-04-26T05:36:31.360Z,3540.00
2018-04-26T05:37:31.418Z,4252.00
2018-04-26T05:38:31.343Z,5000.00
2018-04-26T05:39:31.333Z,5464.00
2018-04-26T05:40:31.396Z,10456.00
2018-04-26T05:41:31.310Z,11344.00
2018-04-26T05:42:31.300Z,10912.00
2018-04-26T05:43:31.292Z,10356.00
2018-04-26T05:44:31.292Z,9872.00
2018-04-26T05:45:31.269Z,9628.00
2018-04-26T05:46:31.272Z,5408.00
2018-04-26T05:47:31.255Z,4348.00
2018-04-26T05:48:31.256Z,4420.00
2018-04-26T05:49:31.239Z,4716.00
2018-04-26T05:50:31.230Z,5488.00
2018-04-26T05:51:31.234Z,5348.00
2018-04-26T05:52:31.213Z,5476.00
2018-04-26T05:53:31.209Z,5796.00
2018-04-26T05:54:31.197Z,6512.00
2018-04-26T05:55:31.200Z,8920.00
2018-04-26T05:56:31.182Z,10296.00
2018-04-26T05:57:31.176Z,9572.00
2018-04-26T05:58:31.166Z,9004.00
2018-04-26T05:59:31.157Z,7640.00
2018-04-26T06:00:31.164Z,7536.00
2018-04-26T06:01:31.141Z,7056.00
2018-04-26T06:02:31.136Z,7016.00
2018-04-26T06:03:31.161Z,6956.00
2018-04-26T06:04:31.115Z,6824.00
2018-04-26T06:05:31.119Z,6292.00
2018-04-26T06:06:31.110Z,6016.00
2018-04-26T06:07:31.091Z,6012.00
2018-04-26T06:08:31.085Z,6280.00
2018-04-26T06:09:31.080Z,6152.00
2018-04-26T06:10:31.076Z,5924.00
2018-04-26T06:11:31.060Z,5864.00
2018-04-26T06:12:31.053Z,6160.00
2018-04-26T06:13:31.050Z,6844.00
2018-04-26T06:14:31.037Z,7252.00
2018-04-26T06:15:31.040Z,7680.00
2018-04-26T06:16:31.020Z,7808.00
2018-04-26T06:17:31.024Z,7508.00
2018-04-26T06:18:31.017Z,6936.00
2018-04-26T06:19:31.002Z,6048.00
2018-04-26T06:20:30.990Z,4860.00
2018-04-26T06:21:30.985Z,6436.00
2018-04-26T06:22:30.982Z,7760.00
2018-04-26T06:23:30.965Z,10512.00
2018-04-26T06:24:30.973Z,10752.00
2018-04-26T06:25:31.013Z,7520.00
2018-04-26T06:26:30.946Z,6708.00
2018-04-26T06:27:30.942Z,6456.00
2018-04-26T06:28:30.923Z,7732.00
2018-04-26T06:29:30.928Z,7512.00
2018-04-26T06:30:30.935Z,4624.00
2018-04-26T06:31:30.903Z,4540.00
2018-04-26T06:32:30.946Z,5548.00
2018-04-26T06:33:30.892Z,8996.00
2018-04-26T06:34:30.878Z,11556.00
2018-04-26T06:35:30.872Z,14376.00
2018-04-26T06:36:30.860Z,10228.00
2018-04-26T06:37:30.854Z,9796.00
2018-04-26T06:38:30.857Z,9508.00
2018-04-26T06:39:30.850Z,7728.00
2018-04-26T06:40:30.840Z,6656.00
2018-04-26T06:41:30.826Z,6376.00
2018-04-26T06:42:30.813Z,6740.00
2018-04-26T06:43:30.821Z,6544.00
2018-04-26T06:44:30.799Z,8520.00
2018-04-26T06:45:30.809Z,9656.00
2018-04-26T06:46:30.792Z,6524.00
2018-04-26T06:47:30.785Z,6692.00
2018-04-26T06:48:30.766Z,6812.00
2018-04-26T06:49:30.764Z,8588.00
2018-04-26T06:50:30.751Z,11912.00
2018-04-26T06:51:30.744Z,11940.00
2018-04-26T06:52:30.741Z,12684.00
2018-04-26T06:53:30.814Z,11920.00
2018-04-26T06:54:30.731Z,13156.00
2018-04-26T06:55:30.718Z,15992.00
2018-04-26T06:56:30.718Z,10436.00
2018-04-26T06:57:30.700Z,10808.00
2018-04-26T06:58:30.705Z,9320.00
2018-04-26T06:59:30.682Z,7364.00
2018-04-26T07:00:32.822Z,6244.00
2018-04-26T07:01:30.669Z,7308.00
2018-04-26T07:02:30.663Z,9752.00
2018-04-26T07:03:30.654Z,12852.00
2018-04-26T07:04:30.657Z,14144.00
2018-04-26T07:05:30.638Z,9240.00
2018-04-26T07:06:30.640Z,7992.00
2018-04-26T07:07:30.623Z,8048.00
2018-04-26T07:08:30.613Z,11168.00
2018-04-26T07:09:30.612Z,13056.00
2018-04-26T07:10:30.611Z,12876.00
2018-04-26T07:11:30.597Z,14644.00
2018-04-26T07:12:30.603Z,21088.00
2018-04-26T07:13:30.578Z,11804.00
2018-04-26T07:14:30.571Z,8852.00
2018-04-26T07:15:30.566Z,14720.00
2018-04-26T07:16:30.564Z,12360.00
2018-04-26T07:17:30.564Z,13868.00
2018-04-26T07:18:30.540Z,17088.00
2018-04-26T07:19:30.533Z,14912.00
2018-04-26T07:20:30.528Z,13092.00
2018-04-26T07:21:30.519Z,12152.00
2018-04-26T07:22:30.510Z,9508.00
2018-04-26T07:23:30.505Z,13524.00
2018-04-26T07:24:30.499Z,11920.00
2018-04-26T07:25:30.506Z,22336.00
2018-04-26T07:26:30.485Z,14228.00
2018-04-26T07:27:30.473Z,13160.00
2018-04-26T07:28:30.469Z,24096.00
2018-04-26T07:29:30.476Z,24544.00
2018-04-26T07:30:30.456Z,10572.00
2018-04-26T07:31:30.459Z,5280.00
2018-04-26T07:32:30.452Z,6176.00
2018-04-26T07:33:30.434Z,9148.00
2018-04-26T07:34:30.429Z,15816.00
2018-04-26T07:35:30.420Z,14612.00
2018-04-26T07:36:30.416Z,10436.00
2018-04-26T07:37:30.409Z,9420.00
2018-04-26T07:38:30.710Z,9000.00
2018-04-26T07:39:30.395Z,9456.00
2018-04-26T07:40:30.392Z,6456.00
2018-04-26T07:41:30.393Z,6220.00
2018-04-26T07:42:30.385Z,7308.00
2018-04-26T07:43:30.368Z,8124.00
2018-04-26T07:44:30.363Z,10772.00
2018-04-26T07:45:30.359Z,9564.00
2018-04-26T07:46:30.350Z,9252.00
2018-04-26T07:47:30.342Z,12780.00
2018-04-26T07:48:30.337Z,19616.00
2018-04-26T07:49:30.344Z,15936.00
2018-04-26T07:50:30.322Z,16124.00
2018-04-26T07:51:30.336Z,15580.00
2018-04-26T07:52:30.318Z,14284.00
2018-04-26T07:53:30.300Z,35520.00
2018-04-26T07:54:30.291Z,38496.00
2018-04-26T07:55:30.305Z,26272.00
2018-04-26T07:56:30.276Z,20352.00
2018-04-26T07:57:30.278Z,12420.00
2018-04-26T07:58:30.264Z,8468.00
2018-04-26T07:59:30.272Z,7488.00
2018-04-26T08:00:30.252Z,7548.00
2018-04-26T08:01:30.306Z,6760.00
2018-04-26T08:02:30.240Z,11092.00
2018-04-26T08:03:30.234Z,26688.00
2018-04-26T08:04:30.229Z,20992.00
2018-04-26T08:05:30.225Z,13036.00
2018-04-26T08:06:30.213Z,10872.00
2018-04-26T08:07:30.836Z,48736.00
2018-04-26T08:08:30.228Z,19200.00
2018-04-26T08:09:30.196Z,61216.00
2018-04-26T08:10:30.194Z,24384.00
2018-04-26T08:11:30.185Z,15496.00
2018-04-26T08:12:30.178Z,18272.00
2018-04-26T08:13:30.172Z,60640.00
2018-04-26T08:14:30.171Z,43808.00
2018-04-26T08:15:30.163Z,54688.00
2018-04-26T08:16:30.169Z,18368.00
2018-04-26T08:17:30.164Z,18848.00
2018-04-26T08:18:30.145Z,10912.00
2018-04-26T08:19:30.143Z,8320.00
2018-04-26T08:20:30.144Z,9080.00
2018-04-26T08:21:30.192Z,10728.00
2018-04-26T08:22:30.239Z,13196.00
2018-04-26T08:23:30.142Z,21888.00
2018-04-26T08:24:30.120Z,64544.00
2018-04-26T08:25:30.114Z,68512.00
2018-04-26T08:26:30.121Z,22816.00
2018-04-26T08:27:30.102Z,28064.00
2018-04-26T08:28:30.099Z,9928.00
2018-04-26T08:29:30.292Z,9648.00
2018-04-26T08:30:30.168Z,10156.00
2018-04-26T08:31:30.098Z,10632.00
2018-04-26T08:32:30.118Z,14428.00
2018-04-26T08:33:30.090Z,64480.00
2018-04-26T08:34:30.085Z,69760.00
2018-04-26T08:35:30.081Z,65248.00
2018-04-26T08:36:30.146Z,54496.00
2018-04-26T08:37:30.077Z,27456.00
2018-04-26T08:38:30.067Z,20352.00
2018-04-26T08:39:30.056Z,60480.00
2018-04-26T08:40:30.097Z,65600.00
2018-04-26T08:41:30.048Z,32512.00
2018-04-26T08:42:30.080Z,53120.00
2018-04-26T08:43:31.614Z,14896.00
2018-04-26T08:44:30.041Z,69056.00
2018-04-26T08:45:30.092Z,71008.00
2018-04-26T08:46:30.051Z,70784.00
2018-04-26T08:47:30.031Z,61984.00
2018-04-26T08:48:30.027Z,18848.00
2018-04-26T08:49:30.025Z,10828.00
2018-04-26T08:50:30.022Z,8348.00
2018-04-26T08:51:30.021Z,8168.00
2018-04-26T08:52:30.017Z,10176.00
2018-04-26T08:53:30.017Z,18720.00
2018-04-26T08:54:30.027Z,10224.00
2018-04-26T08:55:30.009Z,10776.00
2018-04-26T08:56:30.019Z,24800.00
2018-04-26T08:57:30.023Z,34752.00
2018-04-26T08:58:30.028Z,17824.00
2018-04-26T08:59:30.012Z,10540.00
2018-04-26T09:00:29.998Z,11528.00
2018-04-26T09:01:29.995Z,11360.00
2018-04-26T09:02:29.989Z,12544.00
2018-04-26T09:03:29.988Z,78816.00
2018-04-26T09:04:29.997Z,79744.00
2018-04-26T09:05:29.985Z,48928.00
2018-04-26T09:06:29.993Z,77248.00
2018-04-26T09:07:29.984Z,19648.00
2018-04-26T09:08:29.980Z,22208.00
2018-04-26T09:09:29.986Z,24000.00
2018-04-26T09:10:29.970Z,19200.00
2018-04-26T09:11:29.969Z,10936.00
2018-04-26T09:12:29.967Z,11284.00
2018-04-26T09:13:29.990Z,10652.00
2018-04-26T09:14:29.973Z,9536.00
2018-04-26T09:15:29.956Z,6872.00
2018-04-26T09:16:29.967Z,4384.00
2018-04-26T09:17:29.953Z,3768.00
2018-04-26T09:18:29.951Z,3892.00
2018-04-26T09:19:29.944Z,3592.00
2018-04-26T09:20:29.942Z,4288.00
2018-04-26T09:21:29.943Z,3940.00
2018-04-26T09:22:29.936Z,3772.00
2018-04-26T09:23:29.941Z,4268.00
2018-04-26T09:24:29.939Z,5080.00
2018-04-26T09:25:29.957Z,5832.00
2018-04-26T09:26:29.917Z,7228.00
2018-04-26T09:27:29.919Z,8428.00
2018-04-26T09:28:29.926Z,9372.00
2018-04-26T09:29:29.924Z,10100.00
2018-04-26T09:30:29.901Z,11044.00
2018-04-26T09:31:29.908Z,14060.00
2018-04-26T09:32:29.902Z,31296.00
2018-04-26T09:33:29.892Z,45184.00
2018-04-26T09:34:29.891Z,84160.00
2018-04-26T09:35:29.877Z,86016.00
2018-04-26T09:36:29.883Z,73344.00
2018-04-26T09:37:29.887Z,87168.00
2018-04-26T09:38:29.861Z,86624.00
2018-04-26T09:39:29.866Z,85792.00
2018-04-26T09:40:29.852Z,84256.00
2018-04-26T09:41:29.852Z,84832.00
2018-04-26T09:42:29.855Z,85504.00
2018-04-26T09:43:29.866Z,86144.00
2018-04-26T09:44:29.851Z,85120.00
2018-04-26T09:45:29.844Z,86400.00
2018-04-26T09:46:29.845Z,88224.00
2018-04-26T09:47:29.838Z,88096.00
2018-04-26T09:48:29.829Z,86816.00
2018-04-26T09:49:29.823Z,93536.00
2018-04-26T09:50:29.831Z,96640.00
2018-04-26T09:51:29.819Z,94240.00
2018-04-26T09:52:29.830Z,89472.00
2018-04-26T09:53:29.816Z,90400.00
2018-04-26T09:54:29.829Z,90304.00
2018-04-26T09:55:29.899Z,93376.00
2018-04-26T09:56:29.829Z,93248.00
2018-04-26T09:57:29.816Z,93184.00
2018-04-26T09:58:29.870Z,91968.00
2018-04-26T09:59:29.818Z,92352.00
2018-04-26T10:00:29.830Z,93088.00
2018-04-26T10:01:29.829Z,96672.00
2018-04-26T10:02:29.832Z,39392.00
2018-04-26T10:03:29.824Z,96960.00
2018-04-26T10:04:29.826Z,94720.00
2018-04-26T10:05:29.837Z,91904.00
2018-04-26T10:06:29.825Z,93056.00
2018-04-26T10:07:29.827Z,96928.00
2018-04-26T10:08:30.620Z,101952.00
2018-04-26T10:09:29.839Z,106432.00
2018-04-26T10:10:29.836Z,100128.00
2018-04-26T10:11:29.840Z,104864.00
2018-04-26T10:12:30.634Z,72640.00
2018-04-26T10:13:29.848Z,108896.00
2018-04-26T10:14:29.861Z,108352.00
2018-04-26T10:15:29.861Z,82400.00
2018-04-26T10:16:29.857Z,20768.00
2018-04-26T10:17:29.867Z,17664.00
2018-04-26T10:18:29.861Z,15144.00
2018-04-26T10:19:29.866Z,12648.00
2018-04-26T10:20:29.887Z,10180.00
2018-04-26T10:21:29.885Z,10032.00
2018-04-26T10:22:29.887Z,10344.00
2018-04-26T10:23:29.874Z,12584.00
2018-04-26T10:24:29.874Z,17696.00
2018-04-26T10:25:29.884Z,33760.00
2018-04-26T10:26:29.881Z,32512.00
2018-04-26T10:27:29.874Z,83104.00
2018-04-26T10:28:29.874Z,91872.00
2018-04-26T10:29:29.885Z,73312.00
2018-04-26T10:30:29.917Z,92416.00
2018-04-26T10:31:29.884Z,85664.00
2018-04-26T10:32:29.886Z,91872.00
2018-04-26T10:33:29.872Z,81344.00
2018-04-26T10:34:29.924Z,83168.00
2018-04-26T10:35:29.934Z,24832.00
2018-04-26T10:36:29.884Z,17760.00
2018-04-26T10:37:29.887Z,90304.00
2018-04-26T10:38:29.870Z,50464.00
2018-04-26T10:39:29.875Z,97792.00
2018-04-26T10:40:29.884Z,100192.00
2018-04-26T10:41:29.875Z,32256.00
2018-04-26T10:42:29.885Z,57536.00
2018-04-26T10:43:29.874Z,107168.00
2018-04-26T10:44:29.876Z,66624.00
2018-04-26T10:45:29.879Z,85344.00
2018-04-26T10:46:29.894Z,97888.00
2018-04-26T10:47:29.887Z,79936.00
2018-04-26T10:48:29.893Z,97664.00
2018-04-26T10:49:29.895Z,96256.00
2018-04-26T10:50:29.885Z,52640.00
2018-04-26T10:51:29.891Z,23200.00
2018-04-26T10:52:29.890Z,47808.00
2018-04-26T10:53:29.902Z,21728.00
2018-04-26T10:54:29.902Z,19584.00
2018-04-26T10:55:29.908Z,73120.00
2018-04-26T10:56:29.900Z,101312.00
2018-04-26T10:57:29.913Z,46656.00
2018-04-26T10:58:29.905Z,36576.00
2018-04-26T10:59:29.923Z,97440.00
2018-04-26T11:00:29.907Z,20928.00
2018-04-26T11:01:29.923Z,33696.00
2018-04-26T11:02:29.913Z,27584.00
2018-04-26T11:03:29.925Z,91424.00
2018-04-26T11:04:29.930Z,94144.00
2018-04-26T11:05:29.921Z,90368.00
2018-04-26T11:06:29.922Z,18720.00
2018-04-26T11:07:29.929Z,95296.00
2018-04-26T11:08:29.926Z,24800.00
2018-04-26T11:09:29.932Z,26688.00
2018-04-26T11:10:29.935Z,86208.00
2018-04-26T11:11:30.005Z,90400.00
2018-04-26T11:12:29.937Z,21216.00
2018-04-26T11:13:29.953Z,12340.00
2018-04-26T11:14:29.938Z,7728.00
2018-04-26T11:15:30.002Z,5112.00
2018-04-26T11:16:29.954Z,4880.00
2018-04-26T11:17:29.947Z,6384.00
2018-04-26T11:18:29.945Z,8984.00
2018-04-26T11:19:30.027Z,12484.00
2018-04-26T11:20:29.950Z,17696.00
2018-04-26T11:21:29.968Z,106208.00
2018-04-26T11:22:29.947Z,111680.00
2018-04-26T11:23:29.952Z,109504.00
2018-04-26T11:24:30.038Z,107296.00
2018-04-26T11:25:29.947Z,95808.00
2018-04-26T11:26:29.948Z,105792.00
2018-04-26T11:27:29.948Z,103520.00
2018-04-26T11:28:29.970Z,101088.00
2018-04-26T11:29:29.950Z,99328.00
2018-04-26T11:30:29.948Z,99488.00
2018-04-26T11:31:29.968Z,100992.00
2018-04-26T11:32:29.955Z,102912.00
2018-04-26T11:33:29.967Z,100768.00
2018-04-26T11:34:29.955Z,96832.00
2018-04-26T11:35:29.960Z,96416.00
2018-04-26T11:36:29.962Z,101280.00
2018-04-26T11:37:29.974Z,89280.00
2018-04-26T11:38:29.981Z,31872.00
2018-04-26T11:39:30.678Z,24256.00
2018-04-26T11:40:29.982Z,20224.00
2018-04-26T11:41:29.977Z,24608.00
2018-04-26T11:42:29.975Z,21984.00
2018-04-26T11:43:29.978Z,18144.00
2018-04-26T11:44:29.979Z,21248.00
2018-04-26T11:45:29.997Z,35552.00
2018-04-26T11:46:29.999Z,91392.00
2018-04-26T11:47:29.992Z,34752.00
2018-04-26T11:48:29.986Z,92832.00
2018-04-26T11:49:29.992Z,104864.00
2018-04-26T11:50:29.992Z,106080.00
2018-04-26T11:51:29.998Z,104416.00
2018-04-26T11:52:30.009Z,29408.00
2018-04-26T11:53:30.002Z,30400.00
2018-04-26T11:54:30.011Z,17184.00
2018-04-26T11:55:30.020Z,13408.00
2018-04-26T11:56:30.008Z,9604.00
2018-04-26T11:57:30.031Z,6432.00
2018-04-26T11:58:30.013Z,4140.00
2018-04-26T11:59:30.011Z,3232.00
2018-04-26T12:00:30.015Z,2796.00
2018-04-26T12:01:30.025Z,2136.00
2018-04-26T12:02:30.098Z,1720.00
2018-04-26T12:03:30.023Z,1964.00
2018-04-26T12:04:30.022Z,1936.00
2018-04-26T12:05:30.011Z,1892.00
2018-04-26T12:06:30.024Z,2020.00
2018-04-26T12:07:30.011Z,2140.00
2018-04-26T12:08:30.028Z,2276.00
2018-04-26T12:09:30.023Z,2188.00
2018-04-26T12:10:30.018Z,2192.00
2018-04-26T12:11:30.008Z,2772.00
2018-04-26T12:12:30.016Z,4944.00
2018-04-26T12:13:30.015Z,7708.00
2018-04-26T12:14:30.008Z,7744.00
2018-04-26T12:15:29.995Z,8868.00
2018-04-26T12:16:30.001Z,10908.00
2018-04-26T12:17:30.008Z,9420.00
2018-04-26T12:18:30.004Z,5800.00
2018-04-26T12:19:29.990Z,3856.00
2018-04-26T12:20:29.998Z,3220.00